Pagrindinis puslapis
METAR-TAF:

METAR-TAF

Oro uostai :

Torsby, Švedija

platuma: 60-09-17N, ilguma: 12-59-40E, Aukštis: 120 m

Dabartinis oras

Ataskaita buvo paskelbta 25 minutes, ne 18:50 UTC
Vėjas 2 kt nuo kintamojo kryptimis
Temperatūra 14°C
Drėgmė 94%
Slėgis 999 hPa
Matomumas: 6000 m
rūkana

METAR: ESST 231850Z AUTO VRB02KT 6000 BR SCT028/// BKN059/// OVC120/// 14/13 Q0999 REDZ

Laikas: 21:15 (19:15 UTC)


TAF: trūkstamas

Orai ataskaitas ir orų prognozės (METAR, TAF).

turimą stotys yra geltonos ir raudonos taškus žemėlapyje.

Perkelti pele per norėdami pamatyti stoties vardą.

Tada spustelėkite, norėdami matyti oro stebėjimo ir prognozės.

Norėdami pakeisti žemėlapį: spustelėkite ant žalios mygtukų su juodo kryžiaus žemyn,; žalią mygtuką su brūkšneliu, jei norite nutolinti; arba žalių rodyklių gretimoms žemėlapius.


METAR-TAF: